sensor_id;sensor_type;location;lat;lon;timestamp;pressure;altitude;pressure_sealevel;temperature;humidity
4199;BME280;2113;50.946;14.610;2023-02-16T00:01:50;97935.09;;;3.90;56.09
4199;BME280;2113;50.946;14.610;2023-02-16T00:04:19;97935.91;;;3.81;56.02
4199;BME280;2113;50.946;14.610;2023-02-16T00:06:51;97935.03;;;3.76;57.44
4199;BME280;2113;50.946;14.610;2023-02-16T00:09:20;97932.47;;;3.75;57.56
4199;BME280;2113;50.946;14.610;2023-02-16T00:11:49;97929.91;;;3.81;56.76
4199;BME280;2113;50.946;14.610;2023-02-16T00:14:36;97923.84;;;3.66;57.63
4199;BME280;2113;50.946;14.610;2023-02-16T00:17:04;97929.91;;;3.75;56.48
4199;BME280;2113;50.946;14.610;2023-02-16T00:19:35;97928.66;;;3.11;57.64
4199;BME280;2113;50.946;14.610;2023-02-16T00:22:06;97925.50;;;3.50;58.85
4199;BME280;2113;50.946;14.610;2023-02-16T00:24:34;97934.97;;;3.64;58.05
4199;BME280;2113;50.946;14.610;2023-02-16T00:27:11;97928.25;;;3.92;56.93
4199;BME280;2113;50.946;14.610;2023-02-16T00:29:40;97926.59;;;4.25;55.72
4199;BME280;2113;50.946;14.610;2023-02-16T00:32:11;97924.91;;;4.39;55.48
4199;BME280;2113;50.946;14.610;2023-02-16T00:34:43;97923.94;;;3.91;56.05
4199;BME280;2113;50.946;14.610;2023-02-16T00:37:12;97910.28;;;4.15;55.64
4199;BME280;2113;50.946;14.610;2023-02-16T00:39:42;97911.16;;;4.25;55.15
4199;BME280;2113;50.946;14.610;2023-02-16T00:42:13;97917.13;;;4.15;55.23
4199;BME280;2113;50.946;14.610;2023-02-16T00:44:46;97915.47;;;4.24;55.00
4199;BME280;2113;50.946;14.610;2023-02-16T00:47:18;97910.28;;;4.14;55.21
4199;BME280;2113;50.946;14.610;2023-02-16T00:49:48;97907.72;;;4.23;54.87
4199;BME280;2113;50.946;14.610;2023-02-16T00:52:30;97907.69;;;4.07;54.80
4199;BME280;2113;50.946;14.610;2023-02-16T00:55:00;97906.84;;;4.18;55.44
4199;BME280;2113;50.946;14.610;2023-02-16T00:57:31;97900.03;;;4.30;54.90
4199;BME280;2113;50.946;14.610;2023-02-16T01:00:05;97918.00;;;4.14;55.04
4199;BME280;2113;50.946;14.610;2023-02-16T01:02:34;97912.81;;;4.03;55.37
4199;BME280;2113;50.946;14.610;2023-02-16T01:05:03;97907.72;;;4.26;55.63
4199;BME280;2113;50.946;14.610;2023-02-16T01:07:32;97901.72;;;4.33;55.45
4199;BME280;2113;50.946;14.610;2023-02-16T01:10:18;97897.41;;;4.26;55.85
4199;BME280;2113;50.946;14.610;2023-02-16T01:13:05;97895.75;;;4.43;55.83
4199;BME280;2113;50.946;14.610;2023-02-16T01:15:34;97892.31;;;4.44;55.37
4199;BME280;2113;50.946;14.610;2023-02-16T01:18:03;97896.53;;;4.15;55.57
4199;BME280;2113;50.946;14.610;2023-02-16T01:20:32;97894.78;;;3.93;56.33
4199;BME280;2113;50.946;14.610;2023-02-16T01:23:03;97894.81;;;4.01;56.42
4199;BME280;2113;50.946;14.610;2023-02-16T01:25:31;97892.25;;;4.04;56.44
4199;BME280;2113;50.946;14.610;2023-02-16T01:27:59;97894.81;;;4.10;55.52
4199;BME280;2113;50.946;14.610;2023-02-16T01:30:28;97893.91;;;3.93;55.02
4199;BME280;2113;50.946;14.610;2023-02-16T01:32:56;97887.00;;;3.67;57.29
4199;BME280;2113;50.946;14.610;2023-02-16T01:35:29;97885.41;;;4.22;55.54
4199;BME280;2113;50.946;14.610;2023-02-16T01:37:58;97887.97;;;4.02;56.46
4199;BME280;2113;50.946;14.610;2023-02-16T01:40:36;97888.78;;;3.93;56.99
4199;BME280;2113;50.946;14.610;2023-02-16T01:43:15;97875.16;;;4.42;55.87
4199;BME280;2113;50.946;14.610;2023-02-16T01:45:50;97872.56;;;4.53;55.23
4199;BME280;2113;50.946;14.610;2023-02-16T01:48:24;97875.13;;;4.46;55.04
4199;BME280;2113;50.946;14.610;2023-02-16T01:50:57;97882.00;;;4.17;55.97
4199;BME280;2113;50.946;14.610;2023-02-16T01:53:30;97878.56;;;4.47;55.89
4199;BME280;2113;50.946;14.610;2023-02-16T01:56:02;97882.81;;;4.16;56.39
4199;BME280;2113;50.946;14.610;2023-02-16T01:58:38;97882.00;;;4.23;57.21
4199;BME280;2113;50.946;14.610;2023-02-16T02:01:36;97864.81;;;4.22;57.32
4199;BME280;2113;50.946;14.610;2023-02-16T02:04:12;97876.81;;;4.26;57.06
4199;BME280;2113;50.946;14.610;2023-02-16T02:06:58;97860.53;;;4.28;56.63
4199;BME280;2113;50.946;14.610;2023-02-16T02:09:34;97866.53;;;4.07;57.08
4199;BME280;2113;50.946;14.610;2023-02-16T02:12:12;97855.38;;;4.33;57.12
4199;BME280;2113;50.946;14.610;2023-02-16T02:14:41;97851.94;;;4.37;56.56
4199;BME280;2113;50.946;14.610;2023-02-16T02:17:13;97854.53;;;4.31;56.71
4199;BME280;2113;50.946;14.610;2023-02-16T02:19:50;97852.81;;;4.65;56.01
4199;BME280;2113;50.946;14.610;2023-02-16T02:26:30;97847.69;;;4.36;55.97
4199;BME280;2113;50.946;14.610;2023-02-16T02:29:09;97849.34;;;4.06;56.03
4199;BME280;2113;50.946;14.610;2023-02-16T02:31:51;97845.09;;;4.33;55.96
4199;BME280;2113;50.946;14.610;2023-02-16T02:34:35;97841.66;;;4.39;55.79
4199;BME280;2113;50.946;14.610;2023-02-16T02:37:11;97837.38;;;4.51;55.55
4199;BME280;2113;50.946;14.610;2023-02-16T02:39:48;97840.78;;;4.50;55.14
4199;BME280;2113;50.946;14.610;2023-02-16T02:42:27;97839.09;;;4.48;55.26
4199;BME280;2113;50.946;14.610;2023-02-16T02:45:01;97839.09;;;4.49;55.60
4199;BME280;2113;50.946;14.610;2023-02-16T02:47:39;97839.06;;;4.12;55.61
4199;BME280;2113;50.946;14.610;2023-02-16T02:50:39;97840.81;;;4.24;56.20
4199;BME280;2113;50.946;14.610;2023-02-16T02:53:29;97843.22;;;3.57;57.96
4199;BME280;2113;50.946;14.610;2023-02-16T02:56:00;97845.91;;;4.10;56.99
4199;BME280;2113;50.946;14.610;2023-02-16T02:58:50;97844.13;;;3.63;58.35
4199;BME280;2113;50.946;14.610;2023-02-16T03:01:39;97840.78;;;4.18;56.86
4199;BME280;2113;50.946;14.610;2023-02-16T03:04:13;97841.53;;;3.63;58.17
4199;BME280;2113;50.946;14.610;2023-02-16T03:06:46;97841.56;;;3.69;58.21
4199;BME280;2113;50.946;14.610;2023-02-16T03:09:17;97841.59;;;3.85;58.30
4199;BME280;2113;50.946;14.610;2023-02-16T03:11:48;97836.41;;;3.80;58.69
4199;BME280;2113;50.946;14.610;2023-02-16T03:14:39;97841.59;;;3.89;58.69
4199;BME280;2113;50.946;14.610;2023-02-16T03:17:10;97845.94;;;4.44;57.27
4199;BME280;2113;50.946;14.610;2023-02-16T03:19:58;97833.97;;;4.43;56.50
4199;BME280;2113;50.946;14.610;2023-02-16T03:22:46;97844.25;;;4.43;56.30
4199;BME280;2113;50.946;14.610;2023-02-16T03:25:34;97834.78;;;4.59;55.30
4199;BME280;2113;50.946;14.610;2023-02-16T03:28:24;97828.78;;;4.46;55.39
4199;BME280;2113;50.946;14.610;2023-02-16T03:31:16;97831.34;;;4.08;56.11
4199;BME280;2113;50.946;14.610;2023-02-16T03:33:46;97842.44;;;3.91;56.55
4199;BME280;2113;50.946;14.610;2023-02-16T03:36:20;97842.44;;;3.79;57.64
4199;BME280;2113;50.946;14.610;2023-02-16T03:38:50;97830.50;;;4.09;56.76
4199;BME280;2113;50.946;14.610;2023-02-16T03:41:19;97838.19;;;3.92;57.08
4199;BME280;2113;50.946;14.610;2023-02-16T03:43:47;97838.19;;;4.03;57.52
4199;BME280;2113;50.946;14.610;2023-02-16T03:46:17;97842.47;;;3.87;57.14
4199;BME280;2113;50.946;14.610;2023-02-16T03:48:45;97844.16;;;3.85;57.46
4199;BME280;2113;50.946;14.610;2023-02-16T03:51:13;97843.31;;;3.89;57.58
4199;BME280;2113;50.946;14.610;2023-02-16T03:53:41;97839.88;;;3.85;57.51
4199;BME280;2113;50.946;14.610;2023-02-16T03:56:09;97844.06;;;3.57;58.33
4199;BME280;2113;50.946;14.610;2023-02-16T03:59:02;97842.41;;;3.67;58.09
4199;BME280;2113;50.946;14.610;2023-02-16T04:01:32;97850.75;;;3.12;58.99
4199;BME280;2113;50.946;14.610;2023-02-16T04:04:00;97850.81;;;3.27;59.40
4199;BME280;2113;50.946;14.610;2023-02-16T04:06:28;97846.56;;;3.31;59.66
4199;BME280;2113;50.946;14.610;2023-02-16T04:08:57;97849.00;;;3.05;59.98
4199;BME280;2113;50.946;14.610;2023-02-16T04:11:25;97851.53;;;3.02;61.04
4199;BME280;2113;50.946;14.610;2023-02-16T04:14:10;97845.47;;;2.87;61.51
4199;BME280;2113;50.946;14.610;2023-02-16T04:16:40;97842.09;;;2.99;61.68
4199;BME280;2113;50.946;14.610;2023-02-16T04:19:08;97842.00;;;2.84;61.30
4199;BME280;2113;50.946;14.610;2023-02-16T04:21:37;97848.22;;;3.23;60.21
4199;BME280;2113;50.946;14.610;2023-02-16T04:24:05;97841.28;;;3.09;59.80
4199;BME280;2113;50.946;14.610;2023-02-16T04:26:33;97843.91;;;3.16;60.20
4199;BME280;2113;50.946;14.610;2023-02-16T04:29:01;97838.66;;;2.97;60.57
4199;BME280;2113;50.946;14.610;2023-02-16T04:31:30;97841.00;;;2.60;61.37
4199;BME280;2113;50.946;14.610;2023-02-16T04:33:59;97842.03;;;2.88;61.15
4199;BME280;2113;50.946;14.610;2023-02-16T04:36:27;97847.38;;;3.24;59.74
4199;BME280;2113;50.946;14.610;2023-02-16T04:38:57;97841.38;;;3.22;59.51
4199;BME280;2113;50.946;14.610;2023-02-16T04:41:25;97844.75;;;3.13;59.62
4199;BME280;2113;50.946;14.610;2023-02-16T04:43:53;97840.28;;;2.81;60.69
4199;BME280;2113;50.946;14.610;2023-02-16T04:46:22;97835.28;;;3.03;60.07
4199;BME280;2113;50.946;14.610;2023-02-16T04:48:50;97845.53;;;3.00;60.33
4199;BME280;2113;50.946;14.610;2023-02-16T04:51:20;97841.25;;;3.03;59.58
4199;BME280;2113;50.946;14.610;2023-02-16T04:53:48;97837.09;;;3.19;59.35
4199;BME280;2113;50.946;14.610;2023-02-16T04:56:16;97840.56;;;3.29;58.94
4199;BME280;2113;50.946;14.610;2023-02-16T04:58:44;97838.59;;;2.88;60.49
4199;BME280;2113;50.946;14.610;2023-02-16T05:01:17;97840.44;;;3.06;59.90
4199;BME280;2113;50.946;14.610;2023-02-16T05:03:46;97835.34;;;3.17;59.40
4199;BME280;2113;50.946;14.610;2023-02-16T05:06:14;97836.25;;;3.28;58.73
4199;BME280;2113;50.946;14.610;2023-02-16T05:08:45;97826.81;;;3.22;59.67
4199;BME280;2113;50.946;14.610;2023-02-16T05:11:13;97828.50;;;3.20;58.94
4199;BME280;2113;50.946;14.610;2023-02-16T05:13:58;97835.41;;;3.27;59.30
4199;BME280;2113;50.946;14.610;2023-02-16T05:16:45;97836.78;;;2.70;61.09
4199;BME280;2113;50.946;14.610;2023-02-16T05:19:13;97834.22;;;2.73;60.62
4199;BME280;2113;50.946;14.610;2023-02-16T05:21:41;97839.34;;;2.68;60.54
4199;BME280;2113;50.946;14.610;2023-02-16T05:24:11;97840.00;;;2.41;62.35
4199;BME280;2113;50.946;14.610;2023-02-16T05:26:39;97839.31;;;2.62;61.66
4199;BME280;2113;50.946;14.610;2023-02-16T05:29:07;97838.56;;;2.77;61.25
4199;BME280;2113;50.946;14.610;2023-02-16T05:31:35;97837.59;;;2.67;61.42
4199;BME280;2113;50.946;14.610;2023-02-16T05:34:04;97834.31;;;2.88;60.58
4199;BME280;2113;50.946;14.610;2023-02-16T05:36:32;97835.75;;;2.45;61.46
4199;BME280;2113;50.946;14.610;2023-02-16T05:39:00;97843.38;;;2.39;61.83
4199;BME280;2113;50.946;14.610;2023-02-16T05:41:30;97845.06;;;2.32;61.92
4199;BME280;2113;50.946;14.610;2023-02-16T05:43:59;97840.09;;;2.50;61.75
4199;BME280;2113;50.946;14.610;2023-02-16T05:46:29;97840.84;;;2.42;61.85
4199;BME280;2113;50.946;14.610;2023-02-16T05:49:00;97830.44;;;2.20;62.54
4199;BME280;2113;50.946;14.610;2023-02-16T05:51:29;97838.47;;;2.69;61.55
4199;BME280;2113;50.946;14.610;2023-02-16T05:53:57;97843.00;;;3.06;59.97
4199;BME280;2113;50.946;14.610;2023-02-16T05:56:27;97847.88;;;2.64;60.71
4199;BME280;2113;50.946;14.610;2023-02-16T05:58:58;97839.44;;;2.79;60.94
4199;BME280;2113;50.946;14.610;2023-02-16T06:01:27;97834.13;;;2.54;61.26
4199;BME280;2113;50.946;14.610;2023-02-16T06:03:55;97841.03;;;2.66;60.73
4199;BME280;2113;50.946;14.610;2023-02-16T06:06:23;97847.13;;;2.82;60.26
4199;BME280;2113;50.946;14.610;2023-02-16T06:08:52;97847.31;;;3.10;59.93
4199;BME280;2113;50.946;14.610;2023-02-16T06:11:20;97852.41;;;3.04;58.72
4199;BME280;2113;50.946;14.610;2023-02-16T06:14:07;97846.50;;;3.22;59.46
4199;BME280;2113;50.946;14.610;2023-02-16T06:16:37;97843.84;;;3.05;59.85
4199;BME280;2113;50.946;14.610;2023-02-16T06:19:06;97849.09;;;3.26;59.20
4199;BME280;2113;50.946;14.610;2023-02-16T06:21:35;97849.03;;;3.14;58.64
4199;BME280;2113;50.946;14.610;2023-02-16T06:24:03;97847.38;;;3.19;59.06
4199;BME280;2113;50.946;14.610;2023-02-16T06:26:32;97848.13;;;3.04;58.98
4199;BME280;2113;50.946;14.610;2023-02-16T06:29:00;97856.50;;;2.74;59.76
4199;BME280;2113;50.946;14.610;2023-02-16T06:31:30;97855.78;;;2.90;60.10
4199;BME280;2113;50.946;14.610;2023-02-16T06:34:02;97859.31;;;3.17;59.03
4199;BME280;2113;50.946;14.610;2023-02-16T06:36:31;97861.97;;;3.28;58.78
4199;BME280;2113;50.946;14.610;2023-02-16T06:38:59;97855.06;;;3.18;59.42
4199;BME280;2113;50.946;14.610;2023-02-16T06:41:27;97857.59;;;3.13;59.99
4199;BME280;2113;50.946;14.610;2023-02-16T06:44:03;97862.53;;;2.82;60.02
4199;BME280;2113;50.946;14.610;2023-02-16T06:46:34;97850.59;;;2.87;61.14
4199;BME280;2113;50.946;14.610;2023-02-16T06:49:15;97852.31;;;2.88;60.43
4199;BME280;2113;50.946;14.610;2023-02-16T06:52:03;97853.97;;;2.77;61.08
4199;BME280;2113;50.946;14.610;2023-02-16T06:54:32;97858.97;;;2.59;61.52
4199;BME280;2113;50.946;14.610;2023-02-16T06:57:00;97852.28;;;2.82;61.65
4199;BME280;2113;50.946;14.610;2023-02-16T06:59:28;97856.06;;;3.46;59.87
4199;BME280;2113;50.946;14.610;2023-02-16T07:01:58;97861.19;;;3.47;59.29
4199;BME280;2113;50.946;14.610;2023-02-16T07:04:26;97853.66;;;4.00;58.25
4199;BME280;2113;50.946;14.610;2023-02-16T07:07:12;97857.94;;;4.11;57.28
4199;BME280;2113;50.946;14.610;2023-02-16T07:09:41;97850.19;;;3.96;57.30
4199;BME280;2113;50.946;14.610;2023-02-16T07:12:10;97852.75;;;3.87;58.19
4199;BME280;2113;50.946;14.610;2023-02-16T07:14:39;97842.53;;;4.42;57.29
4199;BME280;2113;50.946;14.610;2023-02-16T07:17:12;97845.09;;;4.31;56.99
4199;BME280;2113;50.946;14.610;2023-02-16T07:19:40;97848.53;;;4.24;57.60
4199;BME280;2113;50.946;14.610;2023-02-16T07:22:08;97850.19;;;3.96;59.09
4199;BME280;2113;50.946;14.610;2023-02-16T07:24:36;97845.09;;;4.35;58.32
4199;BME280;2113;50.946;14.610;2023-02-16T07:27:05;97847.63;;;4.15;58.37
4199;BME280;2113;50.946;14.610;2023-02-16T07:29:34;97845.06;;;4.15;59.29
4199;BME280;2113;50.946;14.610;2023-02-16T07:32:03;97851.09;;;4.87;57.25
4199;BME280;2113;50.946;14.610;2023-02-16T07:34:32;97839.44;;;6.08;53.23
4199;BME280;2113;50.946;14.610;2023-02-16T07:37:01;97846.78;;;6.62;52.17
4199;BME280;2113;50.946;14.610;2023-02-16T07:39:29;97833.78;;;7.55;49.58
4199;BME280;2113;50.946;14.610;2023-02-16T07:41:57;97841.88;;;7.94;48.28
4199;BME280;2113;50.946;14.610;2023-02-16T07:44:25;97828.06;;;7.95;48.29
4199;BME280;2113;50.946;14.610;2023-02-16T07:46:54;97837.00;;;6.95;49.95
4199;BME280;2113;50.946;14.610;2023-02-16T07:49:22;97833.63;;;6.89;50.24
4199;BME280;2113;50.946;14.610;2023-02-16T07:51:51;97837.41;;;7.39;50.60
4199;BME280;2113;50.946;14.610;2023-02-16T07:54:19;97836.41;;;7.51;49.31
4199;BME280;2113;50.946;14.610;2023-02-16T07:56:47;97836.78;;;7.88;48.31
4199;BME280;2113;50.946;14.610;2023-02-16T07:59:16;97838.69;;;7.74;48.22
4199;BME280;2113;50.946;14.610;2023-02-16T08:01:44;97835.97;;;8.47;47.26
4199;BME280;2113;50.946;14.610;2023-02-16T08:04:22;97850.25;;;7.45;49.23
4199;BME280;2113;50.946;14.610;2023-02-16T08:06:52;97846.41;;;7.05;50.61
4199;BME280;2113;50.946;14.610;2023-02-16T08:09:21;97854.56;;;7.49;49.13
4199;BME280;2113;50.946;14.610;2023-02-16T08:11:49;97841.72;;;7.38;49.43
4199;BME280;2113;50.946;14.610;2023-02-16T08:14:17;97835.13;;;7.84;49.06
4199;BME280;2113;50.946;14.610;2023-02-16T08:16:45;97837.19;;;7.57;48.67
4199;BME280;2113;50.946;14.610;2023-02-16T08:19:18;97832.66;;;7.73;48.09
4199;BME280;2113;50.946;14.610;2023-02-16T08:21:46;97842.06;;;8.94;46.21
4199;BME280;2113;50.946;14.610;2023-02-16T08:24:16;97842.06;;;9.84;44.37
4199;BME280;2113;50.946;14.610;2023-02-16T08:26:44;97845.16;;;10.76;42.12
4199;BME280;2113;50.946;14.610;2023-02-16T08:29:15;97848.28;;;11.24;40.82
4199;BME280;2113;50.946;14.610;2023-02-16T08:31:46;97855.09;;;10.20;41.90
4199;BME280;2113;50.946;14.610;2023-02-16T08:34:17;97855.72;;;9.50;44.02
4199;BME280;2113;50.946;14.610;2023-02-16T08:36:50;97858.34;;;8.52;46.23
4199;BME280;2113;50.946;14.610;2023-02-16T08:39:21;97861.50;;;7.44;48.10
4199;BME280;2113;50.946;14.610;2023-02-16T08:41:50;97859.28;;;7.83;48.81
4199;BME280;2113;50.946;14.610;2023-02-16T08:44:20;97859.06;;;8.00;47.99
4199;BME280;2113;50.946;14.610;2023-02-16T08:46:51;97858.06;;;7.43;49.54
4199;BME280;2113;50.946;14.610;2023-02-16T08:49:21;97857.53;;;7.11;50.55
4199;BME280;2113;50.946;14.610;2023-02-16T08:51:51;97854.31;;;6.92;51.84
4199;BME280;2113;50.946;14.610;2023-02-16T08:54:23;97842.94;;;7.79;49.49
4199;BME280;2113;50.946;14.610;2023-02-16T08:56:53;97847.69;;;8.69;47.13
4199;BME280;2113;50.946;14.610;2023-02-16T08:59:22;97845.59;;;8.90;46.14
4199;BME280;2113;50.946;14.610;2023-02-16T09:01:54;97845.03;;;9.20;45.86
4199;BME280;2113;50.946;14.610;2023-02-16T09:04:23;97852.94;;;9.14;45.23
4199;BME280;2113;50.946;14.610;2023-02-16T09:06:51;97846.06;;;9.13;45.72
4199;BME280;2113;50.946;14.610;2023-02-16T09:09:19;97845.72;;;8.84;46.28
4199;BME280;2113;50.946;14.610;2023-02-16T09:11:49;97854.28;;;8.89;46.93
4199;BME280;2113;50.946;14.610;2023-02-16T09:14:18;97848.19;;;8.90;46.71
4199;BME280;2113;50.946;14.610;2023-02-16T09:16:48;97850.03;;;10.15;43.86
4199;BME280;2113;50.946;14.610;2023-02-16T09:19:18;97853.38;;;9.80;44.84
4199;BME280;2113;50.946;14.610;2023-02-16T09:21:48;97852.94;;;10.41;43.18
4199;BME280;2113;50.946;14.610;2023-02-16T09:24:17;97848.72;;;10.36;43.16
4199;BME280;2113;50.946;14.610;2023-02-16T09:26:45;97851.09;;;10.46;43.23
4199;BME280;2113;50.946;14.610;2023-02-16T09:29:15;97852.81;;;11.15;41.87
4199;BME280;2113;50.946;14.610;2023-02-16T09:31:44;97852.47;;;12.20;39.91
4199;BME280;2113;50.946;14.610;2023-02-16T09:34:15;97847.31;;;11.89;40.27
4199;BME280;2113;50.946;14.610;2023-02-16T09:36:44;97842.53;;;12.60;38.93
4199;BME280;2113;50.946;14.610;2023-02-16T09:39:13;97845.75;;;12.68;37.91
4199;BME280;2113;50.946;14.610;2023-02-16T09:41:57;97850.25;;;10.45;42.32
4199;BME280;2113;50.946;14.610;2023-02-16T09:44:36;97840.41;;;11.86;39.58
4199;BME280;2113;50.946;14.610;2023-02-16T09:47:12;97837.22;;;12.08;38.93
4199;BME280;2113;50.946;14.610;2023-02-16T09:49:45;97842.09;;;12.19;39.78
4199;BME280;2113;50.946;14.610;2023-02-16T09:52:20;97840.69;;;12.37;38.70
4199;BME280;2113;50.946;14.610;2023-02-16T09:54:53;97836.13;;;12.70;38.65
4199;BME280;2113;50.946;14.610;2023-02-16T09:57:34;97833.84;;;13.38;37.20
4199;BME280;2113;50.946;14.610;2023-02-16T10:00:14;97835.50;;;13.87;35.63
4199;BME280;2113;50.946;14.610;2023-02-16T10:02:48;97829.56;;;14.06;36.33
4199;BME280;2113;50.946;14.610;2023-02-16T10:05:24;97835.38;;;12.91;37.78
4199;BME280;2113;50.946;14.610;2023-02-16T10:07:58;97829.03;;;12.73;38.16
4199;BME280;2113;50.946;14.610;2023-02-16T10:10:37;97832.81;;;12.10;39.56
4199;BME280;2113;50.946;14.610;2023-02-16T10:13:15;97832.91;;;13.13;37.78
4199;BME280;2113;50.946;14.610;2023-02-16T10:15:48;97836.88;;;13.24;37.58
4199;BME280;2113;50.946;14.610;2023-02-16T10:18:24;97829.81;;;14.44;36.29
4199;BME280;2113;50.946;14.610;2023-02-16T10:21:21;97823.72;;;15.47;33.76
4199;BME280;2113;50.946;14.610;2023-02-16T10:23:55;97813.06;;;15.92;32.99
4199;BME280;2113;50.946;14.610;2023-02-16T10:26:30;97824.31;;;14.06;36.36
4199;BME280;2113;50.946;14.610;2023-02-16T10:29:04;97825.91;;;14.76;35.02
4199;BME280;2113;50.946;14.610;2023-02-16T10:31:38;97824.50;;;15.31;34.72
4199;BME280;2113;50.946;14.610;2023-02-16T10:34:17;97817.81;;;15.03;34.82
4199;BME280;2113;50.946;14.610;2023-02-16T10:37:08;97823.63;;;14.24;36.54
4199;BME280;2113;50.946;14.610;2023-02-16T10:39:44;97816.81;;;14.64;35.94
4199;BME280;2113;50.946;14.610;2023-02-16T10:42:20;97812.75;;;14.56;36.13
4199;BME280;2113;50.946;14.610;2023-02-16T10:44:57;97809.69;;;15.09;34.89
4199;BME280;2113;50.946;14.610;2023-02-16T10:47:32;97810.78;;;13.73;38.07
4199;BME280;2113;50.946;14.610;2023-02-16T10:50:03;97817.94;;;13.67;37.45
4199;BME280;2113;50.946;14.610;2023-02-16T10:52:36;97821.06;;;13.28;38.35
4199;BME280;2113;50.946;14.610;2023-02-16T10:55:06;97820.53;;;11.23;41.16
4199;BME280;2113;50.946;14.610;2023-02-16T10:57:34;97811.41;;;11.69;41.62
4199;BME280;2113;50.946;14.610;2023-02-16T11:00:06;97807.03;;;13.07;39.24
4199;BME280;2113;50.946;14.610;2023-02-16T11:02:40;97815.38;;;12.92;39.58
4199;BME280;2113;50.946;14.610;2023-02-16T11:05:35;97822.28;;;12.13;41.19
4199;BME280;2113;50.946;14.610;2023-02-16T11:08:05;97811.97;;;13.64;38.43
4199;BME280;2113;50.946;14.610;2023-02-16T11:10:42;97811.19;;;13.85;37.90
4199;BME280;2113;50.946;14.610;2023-02-16T11:13:21;97804.06;;;15.18;37.05
4199;BME280;2113;50.946;14.610;2023-02-16T11:15:54;97809.16;;;14.60;36.55
4199;BME280;2113;50.946;14.610;2023-02-16T11:18:31;97801.13;;;15.05;36.37
4199;BME280;2113;50.946;14.610;2023-02-16T11:21:01;97798.16;;;15.34;35.05
4199;BME280;2113;50.946;14.610;2023-02-16T11:23:31;97802.03;;;14.84;36.08
4199;BME280;2113;50.946;14.610;2023-02-16T11:26:02;97791.19;;;15.72;34.93
4199;BME280;2113;50.946;14.610;2023-02-16T11:28:34;97800.50;;;14.14;38.01
4199;BME280;2113;50.946;14.610;2023-02-16T11:31:15;97800.91;;;13.57;39.78
4199;BME280;2113;50.946;14.610;2023-02-16T11:33:57;97807.56;;;12.92;38.72
4199;BME280;2113;50.946;14.610;2023-02-16T11:36:31;97791.38;;;13.56;38.73
4199;BME280;2113;50.946;14.610;2023-02-16T11:39:02;97794.47;;;12.93;40.15
4199;BME280;2113;50.946;14.610;2023-02-16T11:41:31;97793.47;;;13.46;38.68
4199;BME280;2113;50.946;14.610;2023-02-16T11:44:01;97790.34;;;13.11;40.08
4199;BME280;2113;50.946;14.610;2023-02-16T11:46:37;97796.53;;;12.30;41.83
4199;BME280;2113;50.946;14.610;2023-02-16T11:49:30;97790.59;;;11.99;42.56
4199;BME280;2113;50.946;14.610;2023-02-16T11:52:00;97794.31;;;12.18;42.14
4199;BME280;2113;50.946;14.610;2023-02-16T11:54:47;97799.84;;;12.36;41.36
4199;BME280;2113;50.946;14.610;2023-02-16T11:57:22;97794.13;;;12.24;42.05
4199;BME280;2113;50.946;14.610;2023-02-16T11:59:51;97794.63;;;12.07;41.28
4199;BME280;2113;50.946;14.610;2023-02-16T12:02:41;97787.34;;;11.61;42.50
4199;BME280;2113;50.946;14.610;2023-02-16T12:05:23;97783.28;;;11.80;42.60
4199;BME280;2113;50.946;14.610;2023-02-16T12:08:13;97790.44;;;12.03;42.13
4199;BME280;2113;50.946;14.610;2023-02-16T12:10:59;97781.84;;;12.28;42.11
4199;BME280;2113;50.946;14.610;2023-02-16T12:13:35;97782.91;;;11.33;43.01
4199;BME280;2113;50.946;14.610;2023-02-16T12:16:18;97777.72;;;11.02;44.08
4199;BME280;2113;50.946;14.610;2023-02-16T12:18:58;97770.06;;;10.97;43.73
4199;BME280;2113;50.946;14.610;2023-02-16T12:21:35;97771.19;;;10.85;43.33
4199;BME280;2113;50.946;14.610;2023-02-16T12:24:16;97769.69;;;11.09;43.42
4199;BME280;2113;50.946;14.610;2023-02-16T12:26:51;97766.56;;;11.29;42.65
4199;BME280;2113;50.946;14.610;2023-02-16T12:29:33;97765.44;;;12.51;40.22
4199;BME280;2113;50.946;14.610;2023-02-16T12:32:16;97760.72;;;12.36;41.68
4199;BME280;2113;50.946;14.610;2023-02-16T12:34:59;97762.25;;;11.58;42.37
4199;BME280;2113;50.946;14.610;2023-02-16T12:37:37;97765.63;;;11.01;43.19
4199;BME280;2113;50.946;14.610;2023-02-16T12:40:16;97757.81;;;12.71;40.38
4199;BME280;2113;50.946;14.610;2023-02-16T12:42:56;97758.38;;;12.28;40.85
4199;BME280;2113;50.946;14.610;2023-02-16T12:45:33;97748.41;;;11.84;41.36
4199;BME280;2113;50.946;14.610;2023-02-16T12:48:12;97752.31;;;12.54;40.18
4199;BME280;2113;50.946;14.610;2023-02-16T12:50:47;97755.66;;;12.04;40.77
4199;BME280;2113;50.946;14.610;2023-02-16T12:53:22;97755.91;;;11.97;41.25
4199;BME280;2113;50.946;14.610;2023-02-16T12:55:56;97744.75;;;12.97;39.86
4199;BME280;2113;50.946;14.610;2023-02-16T12:58:29;97743.09;;;12.94;39.98
4199;BME280;2113;50.946;14.610;2023-02-16T13:01:02;97742.78;;;13.03;39.11
4199;BME280;2113;50.946;14.610;2023-02-16T13:03:37;97747.00;;;11.44;42.91
4199;BME280;2113;50.946;14.610;2023-02-16T13:06:12;97742.44;;;11.81;43.66
4199;BME280;2113;50.946;14.610;2023-02-16T13:08:47;97730.75;;;12.74;40.56
4199;BME280;2113;50.946;14.610;2023-02-16T13:11:21;97737.75;;;12.47;40.95
4199;BME280;2113;50.946;14.610;2023-02-16T13:13:55;97734.06;;;12.01;41.95
4199;BME280;2113;50.946;14.610;2023-02-16T13:16:30;97726.72;;;12.65;41.10
4199;BME280;2113;50.946;14.610;2023-02-16T13:19:04;97729.88;;;12.48;41.19
4199;BME280;2113;50.946;14.610;2023-02-16T13:21:47;97727.25;;;11.67;41.94
4199;BME280;2113;50.946;14.610;2023-02-16T13:24:31;97717.50;;;11.45;43.23
4199;BME280;2113;50.946;14.610;2023-02-16T13:27:14;97722.84;;;11.69;42.54
4199;BME280;2113;50.946;14.610;2023-02-16T13:29:57;97729.06;;;12.21;42.29
4199;BME280;2113;50.946;14.610;2023-02-16T13:32:42;97719.06;;;11.79;43.04
4199;BME280;2113;50.946;14.610;2023-02-16T13:35:30;97725.31;;;12.28;42.66
4199;BME280;2113;50.946;14.610;2023-02-16T13:38:22;97720.19;;;11.70;42.46
4199;BME280;2113;50.946;14.610;2023-02-16T13:41:14;97708.53;;;12.10;41.97
4199;BME280;2113;50.946;14.610;2023-02-16T13:43:52;97716.38;;;11.81;42.53
4199;BME280;2113;50.946;14.610;2023-02-16T13:46:27;97723.09;;;11.00;43.94
4199;BME280;2113;50.946;14.610;2023-02-16T13:48:56;97711.13;;;11.26;43.96
4199;BME280;2113;50.946;14.610;2023-02-16T13:51:27;97723.03;;;11.63;42.56
4199;BME280;2113;50.946;14.610;2023-02-16T13:53:58;97715.72;;;11.46;44.17
4199;BME280;2113;50.946;14.610;2023-02-16T13:56:34;97711.19;;;11.52;43.80